sensor_id;sensor_type;location;lat;lon;timestamp;pressure;altitude;pressure_sealevel;temperature;humidity
12801;BME280;6464;42.494;27.470;2023-04-02T09:47:25;101039.25;;;25.32;100.00
12801;BME280;6464;42.494;27.470;2023-04-02T09:49:53;101054.28;;;26.07;100.00
12801;BME280;6464;42.494;27.470;2023-04-02T09:52:26;101096.00;;;27.71;100.00
12801;BME280;6464;42.494;27.470;2023-04-02T09:55:26;101075.69;;;28.28;100.00
12801;BME280;6464;42.494;27.470;2023-04-02T09:58:11;101081.44;;;27.40;100.00
12801;BME280;6464;42.494;27.470;2023-04-02T10:00:39;101065.44;;;28.53;100.00
12801;BME280;6464;42.494;27.470;2023-04-02T10:03:23;101104.50;;;29.81;91.92
12801;BME280;6464;42.494;27.470;2023-04-02T10:06:05;101066.56;;;29.40;84.03
12801;BME280;6464;42.494;27.470;2023-04-02T10:08:32;101117.38;;;29.09;83.29
12801;BME280;6464;42.494;27.470;2023-04-02T10:11:02;101091.66;;;29.04;84.47
12801;BME280;6464;42.494;27.470;2023-04-02T10:13:33;101095.47;;;30.19;84.62
12801;BME280;6464;42.494;27.470;2023-04-02T10:16:05;101043.75;;;27.69;88.48
12801;BME280;6464;42.494;27.470;2023-04-02T10:18:43;101061.50;;;29.07;85.60
12801;BME280;6464;42.494;27.470;2023-04-02T10:21:15;101106.28;;;29.22;80.23
12801;BME280;6464;42.494;27.470;2023-04-02T10:23:43;100975.69;;;28.14;81.75
12801;BME280;6464;42.494;27.470;2023-04-02T10:26:34;101068.59;;;29.77;83.91
12801;BME280;6464;42.494;27.470;2023-04-02T10:29:19;101013.41;;;28.48;85.59
12801;BME280;6464;42.494;27.470;2023-04-02T10:31:57;101064.22;;;28.76;82.54
12801;BME280;6464;42.494;27.470;2023-04-02T10:34:33;101023.59;;;28.25;82.04
12801;BME280;6464;42.494;27.470;2023-04-02T10:37:12;101006.56;;;27.92;89.66
12801;BME280;6464;42.494;27.470;2023-04-02T10:39:49;101057.44;;;28.51;87.06
12801;BME280;6464;42.494;27.470;2023-04-02T10:42:25;100940.03;;;25.47;100.00
12801;BME280;6464;42.494;27.470;2023-04-02T10:44:59;101010.44;;;26.26;100.00
12801;BME280;6464;42.494;27.470;2023-04-02T10:47:34;100969.06;;;27.97;93.13
12801;BME280;6464;42.494;27.470;2023-04-02T10:50:20;101008.81;;;26.01;100.00
12801;BME280;6464;42.494;27.470;2023-04-02T10:52:54;101005.66;;;27.50;100.00
12801;BME280;6464;42.494;27.470;2023-04-02T10:55:27;101016.34;;;28.65;95.67
12801;BME280;6464;42.494;27.470;2023-04-02T10:57:56;101025.47;;;28.03;93.19
12801;BME280;6464;42.494;27.470;2023-04-02T11:00:27;101020.88;;;26.42;100.00
12801;BME280;6464;42.494;27.470;2023-04-02T11:02:58;100997.28;;;26.66;100.00
12801;BME280;6464;42.494;27.470;2023-04-02T11:05:34;100960.88;;;27.46;97.49
12801;BME280;6464;42.494;27.470;2023-04-02T11:08:09;101055.63;;;27.25;98.86
12801;BME280;6464;42.494;27.470;2023-04-02T11:10:45;100998.34;;;25.96;100.00
12801;BME280;6464;42.494;27.470;2023-04-02T11:13:19;100906.75;;;24.40;100.00
12801;BME280;6464;42.494;27.470;2023-04-02T11:15:48;100957.97;;;26.17;100.00
12801;BME280;6464;42.494;27.470;2023-04-02T11:18:22;101011.75;;;27.10;100.00
12801;BME280;6464;42.494;27.470;2023-04-02T11:21:01;101028.34;;;27.05;100.00
12801;BME280;6464;42.494;27.470;2023-04-02T11:26:31;100977.50;;;26.21;100.00
12801;BME280;6464;42.494;27.470;2023-04-02T11:29:04;100923.00;;;27.13;100.00
12801;BME280;6464;42.494;27.470;2023-04-02T11:31:32;100985.94;;;26.83;100.00
12801;BME280;6464;42.494;27.470;2023-04-02T11:33:59;101025.56;;;27.71;98.71
12801;BME280;6464;42.494;27.470;2023-04-02T11:37:02;101075.69;;;29.39;85.31
12801;BME280;6464;42.494;27.470;2023-04-02T11:39:50;100990.59;;;25.92;100.00
12801;BME280;6464;42.494;27.470;2023-04-02T11:42:27;101013.59;;;26.87;100.00
12801;BME280;6464;42.494;27.470;2023-04-02T11:44:57;100999.91;;;28.67;87.63
12801;BME280;6464;42.494;27.470;2023-04-02T11:47:27;101039.81;;;28.76;81.93
12801;BME280;6464;42.494;27.470;2023-04-02T11:50:00;100993.66;;;27.42;89.17
12801;BME280;6464;42.494;27.470;2023-04-02T11:52:33;101005.69;;;27.71;95.06
12801;BME280;6464;42.494;27.470;2023-04-02T11:55:19;101053.38;;;29.07;86.53
12801;BME280;6464;42.494;27.470;2023-04-02T11:58:23;101046.53;;;30.00;81.50
12801;BME280;6464;42.494;27.470;2023-04-02T12:01:28;101080.63;;;29.84;74.00
12801;BME280;6464;42.494;27.470;2023-04-02T12:10:04;101061.91;;;30.38;77.32
12801;BME280;6464;42.494;27.470;2023-04-02T12:12:38;101028.53;;;31.18;70.27
12801;BME280;6464;42.494;27.470;2023-04-02T12:15:06;101074.22;;;31.07;66.69
12801;BME280;6464;42.494;27.470;2023-04-02T12:18:02;101045.09;;;30.15;66.46
12801;BME280;6464;42.494;27.470;2023-04-02T12:20:31;101053.34;;;28.97;72.90
12801;BME280;6464;42.494;27.470;2023-04-02T12:22:58;100954.53;;;26.60;89.43
12801;BME280;6464;42.494;27.470;2023-04-02T12:25:29;100892.72;;;25.99;100.00
12801;BME280;6464;42.494;27.470;2023-04-02T12:28:05;101017.81;;;28.18;87.05
12801;BME280;6464;42.494;27.470;2023-04-02T12:30:34;101056.69;;;29.78;78.83
12801;BME280;6464;42.494;27.470;2023-04-02T12:33:16;101087.25;;;30.85;70.50
12801;BME280;6464;42.494;27.470;2023-04-02T12:35:54;101092.28;;;31.71;69.03
12801;BME280;6464;42.494;27.470;2023-04-02T12:38:24;101115.97;;;32.50;63.56
12801;BME280;6464;42.494;27.470;2023-04-02T12:40:55;101130.69;;;32.57;60.12
12801;BME280;6464;42.494;27.470;2023-04-02T12:43:24;101101.97;;;30.92;61.70
12801;BME280;6464;42.494;27.470;2023-04-02T12:45:52;101121.56;;;32.48;59.88
12801;BME280;6464;42.494;27.470;2023-04-02T12:48:20;101110.75;;;31.95;61.48
12801;BME280;6464;42.494;27.470;2023-04-02T12:50:47;101093.50;;;32.90;60.80
12801;BME280;6464;42.494;27.470;2023-04-02T12:53:20;101102.81;;;32.45;58.07
12801;BME280;6464;42.494;27.470;2023-04-02T12:55:49;100989.91;;;32.55;57.84
12801;BME280;6464;42.494;27.470;2023-04-02T12:58:39;101098.19;;;33.14;56.13
12801;BME280;6464;42.494;27.470;2023-04-02T13:01:12;101113.53;;;33.58;55.75
12801;BME280;6464;42.494;27.470;2023-04-02T13:03:39;101063.28;;;33.59;55.98
12801;BME280;6464;42.494;27.470;2023-04-02T13:06:20;101079.00;;;33.89;57.05
12801;BME280;6464;42.494;27.470;2023-04-02T13:08:49;101080.06;;;32.19;58.37
12801;BME280;6464;42.494;27.470;2023-04-02T13:11:16;101068.31;;;31.92;57.97
12801;BME280;6464;42.494;27.470;2023-04-02T13:13:45;101067.59;;;31.37;57.14
12801;BME280;6464;42.494;27.470;2023-04-02T13:16:25;101052.84;;;32.01;55.08
12801;BME280;6464;42.494;27.470;2023-04-02T13:19:08;101018.66;;;31.00;55.98
12801;BME280;6464;42.494;27.470;2023-04-02T13:21:36;101051.59;;;31.24;58.80
12801;BME280;6464;42.494;27.470;2023-04-02T13:24:03;101101.16;;;33.37;55.64
12801;BME280;6464;42.494;27.470;2023-04-02T13:26:30;101063.50;;;34.62;53.73
12801;BME280;6464;42.494;27.470;2023-04-02T13:29:00;101097.63;;;34.98;50.52
12801;BME280;6464;42.494;27.470;2023-04-02T13:31:28;101107.88;;;35.05;49.63
12801;BME280;6464;42.494;27.470;2023-04-02T13:33:56;101077.56;;;35.29;48.67
12801;BME280;6464;42.494;27.470;2023-04-02T13:36:23;101143.19;;;36.83;46.69
12801;BME280;6464;42.494;27.470;2023-04-02T13:38:50;101072.84;;;36.89;46.19
12801;BME280;6464;42.494;27.470;2023-04-02T13:41:20;101139.53;;;37.27;46.02
12801;BME280;6464;42.494;27.470;2023-04-02T13:43:48;101065.56;;;34.68;47.92
12801;BME280;6464;42.494;27.470;2023-04-02T13:46:19;101001.25;;;34.87;47.39
12801;BME280;6464;42.494;27.470;2023-04-02T13:48:47;101099.28;;;35.16;46.28
12801;BME280;6464;42.494;27.470;2023-04-02T13:51:16;101061.56;;;35.18;46.25
12801;BME280;6464;42.494;27.470;2023-04-02T13:53:44;101085.66;;;35.31;45.97
12801;BME280;6464;42.494;27.470;2023-04-02T13:56:12;101106.97;;;35.20;44.88
12801;BME280;6464;42.494;27.470;2023-04-02T13:58:39;101070.44;;;34.25;45.33
12801;BME280;6464;42.494;27.470;2023-04-02T14:01:06;101090.28;;;35.30;45.20
12801;BME280;6464;42.494;27.470;2023-04-02T14:03:35;101082.03;;;35.61;43.75
12801;BME280;6464;42.494;27.470;2023-04-02T14:06:07;101030.22;;;34.25;43.91
12801;BME280;6464;42.494;27.470;2023-04-02T14:08:48;101124.13;;;35.91;43.34
12801;BME280;6464;42.494;27.470;2023-04-02T14:11:27;101127.78;;;34.90;42.59
12801;BME280;6464;42.494;27.470;2023-04-02T14:14:09;101047.84;;;31.07;46.68
12801;BME280;6464;42.494;27.470;2023-04-02T14:16:49;101067.84;;;32.83;47.19
12801;BME280;6464;42.494;27.470;2023-04-02T14:19:32;101020.34;;;33.84;45.74
12801;BME280;6464;42.494;27.470;2023-04-02T14:22:12;101106.00;;;35.36;43.77
12801;BME280;6464;42.494;27.470;2023-04-02T14:24:52;101114.28;;;34.97;43.91
12801;BME280;6464;42.494;27.470;2023-04-02T14:27:29;101114.94;;;34.99;44.16
12801;BME280;6464;42.494;27.470;2023-04-02T14:30:05;101059.44;;;34.49;43.59
12801;BME280;6464;42.494;27.470;2023-04-02T14:32:43;101072.84;;;33.63;44.91
12801;BME280;6464;42.494;27.470;2023-04-02T14:35:19;101049.72;;;31.07;45.49
12801;BME280;6464;42.494;27.470;2023-04-02T14:37:52;100982.78;;;28.26;51.01
12801;BME280;6464;42.494;27.470;2023-04-02T14:40:24;100986.00;;;29.78;52.04
12801;BME280;6464;42.494;27.470;2023-04-02T14:42:56;101009.75;;;30.97;50.17
12801;BME280;6464;42.494;27.470;2023-04-02T14:45:34;101013.50;;;30.41;48.20
12801;BME280;6464;42.494;27.470;2023-04-02T14:48:15;101007.63;;;31.19;47.78
12801;BME280;6464;42.494;27.470;2023-04-02T14:50:50;101052.72;;;32.63;45.88
12801;BME280;6464;42.494;27.470;2023-04-02T14:53:24;101073.22;;;33.01;45.26
12801;BME280;6464;42.494;27.470;2023-04-02T14:55:53;101065.47;;;32.28;45.94
12801;BME280;6464;42.494;27.470;2023-04-02T14:58:25;101041.19;;;30.27;47.50
12801;BME280;6464;42.494;27.470;2023-04-02T15:00:56;100978.09;;;30.96;47.30
12801;BME280;6464;42.494;27.470;2023-04-02T15:03:26;101027.88;;;30.24;49.20
12801;BME280;6464;42.494;27.470;2023-04-02T15:05:57;101039.38;;;31.10;48.00
12801;BME280;6464;42.494;27.470;2023-04-02T15:08:26;101055.31;;;31.05;45.99
12801;BME280;6464;42.494;27.470;2023-04-02T15:10:58;101034.38;;;30.41;48.61
12801;BME280;6464;42.494;27.470;2023-04-02T15:13:33;101010.38;;;29.60;48.50
12801;BME280;6464;42.494;27.470;2023-04-02T15:16:08;101027.38;;;29.72;49.36
12801;BME280;6464;42.494;27.470;2023-04-02T15:18:36;101017.69;;;29.69;49.66
12801;BME280;6464;42.494;27.470;2023-04-02T15:21:15;100915.50;;;29.77;48.67
12801;BME280;6464;42.494;27.470;2023-04-02T15:23:52;101070.94;;;31.84;47.17
12801;BME280;6464;42.494;27.470;2023-04-02T15:26:24;101044.13;;;31.97;44.50
12801;BME280;6464;42.494;27.470;2023-04-02T15:29:02;101070.91;;;30.85;45.03
12801;BME280;6464;42.494;27.470;2023-04-02T15:31:30;101034.91;;;28.60;46.09
12801;BME280;6464;42.494;27.470;2023-04-02T15:34:06;101005.84;;;26.82;48.92
12801;BME280;6464;42.494;27.470;2023-04-02T15:39:58;100925.09;;;24.71;54.59
12801;BME280;6464;42.494;27.470;2023-04-02T15:42:29;100946.78;;;24.20;58.46
12801;BME280;6464;42.494;27.470;2023-04-02T15:45:14;100930.84;;;23.92;59.59
12801;BME280;6464;42.494;27.470;2023-04-02T15:47:52;100936.63;;;23.47;63.72
12801;BME280;6464;42.494;27.470;2023-04-02T15:50:37;100818.97;;;22.17;66.48
12801;BME280;6464;42.494;27.470;2023-04-02T15:53:15;100828.66;;;22.05;66.21
12801;BME280;6464;42.494;27.470;2023-04-02T15:55:55;100761.13;;;21.56;69.19
12801;BME280;6464;42.494;27.470;2023-04-02T15:58:37;100922.16;;;22.27;72.94
12801;BME280;6464;42.494;27.470;2023-04-02T16:01:10;100906.44;;;21.93;72.03
12801;BME280;6464;42.494;27.470;2023-04-02T16:04:01;100849.88;;;21.39;76.67
12801;BME280;6464;42.494;27.470;2023-04-02T16:06:37;100875.47;;;21.44;86.40
12801;BME280;6464;42.494;27.470;2023-04-02T16:09:17;100804.34;;;20.93;90.94
12801;BME280;6464;42.494;27.470;2023-04-02T16:11:56;100840.25;;;20.90;99.31
12801;BME280;6464;42.494;27.470;2023-04-02T17:58:48;100535.94;;;14.01;100.00
12801;BME280;6464;42.494;27.470;2023-04-02T18:33:05;100326.28;;;14.07;100.00
12801;BME280;6464;42.494;27.470;2023-04-02T18:36:15;99831.28;;;13.10;100.00
